sim
Sign-in with your pilot id or email,
or register
Callsign
Passwort

Schedule Details

Flight Number: DLH1714 (1)
Departure: Munich Airport (EDDM) at 14:25
Arrival: Zagreb Franjo Tudman Airport (LDZA) at 15:25
Route: Lufthansa Passenger Schedule. Enter filed route here before submitting Pirep.

Weather Information
Getting current METAR information for EDDM 211750Z VRB01KT CAVOK 16/13 Q1015 NOSIG
Getting current METAR information for LDZA 211730Z 00000KT CAVOK 21/14 Q1016 NOSIG

Schedule Frequency

Route Map